Rosebud, South Dakota
Current Conditions -  °F | °C
As of 12:52 PM on Thursday 27 Nov 2014 (Local Time) from KVTN Reporting Station
Clear Clear  
Wind Chill: 32°   Ceiling: Unl
Heat Index: 40°   Visibility: 10mi
Dew Point: 22°   Wind: 15mph
Humidity: 49%   Direction: 170°S
Pressure: 30.04"   Gusts: NA
Location:  43.23°N, 100.86°W
Report Text: KVTN 271952Z AUTO 17013KT 10SM CLR 04/M06 A3004 RMK AO2 SLP199 T00441056
Loading
Personal Weather Stations






























Interactive Weather Map New forecast layout! Learn more

10-Day Weather Forecast

Advertisements
Track Severe Weather on mobile